createdAt,value
2023-09-12T00:01:10.897Z,12.94
2023-09-12T00:03:37.499Z,12.91
2023-09-12T00:06:05.621Z,13.01
2023-09-12T00:08:32.242Z,12.97
2023-09-12T00:11:04.867Z,13.04
2023-09-12T00:13:32.241Z,13.03
2023-09-12T00:15:59.507Z,12.97
2023-09-12T00:18:26.334Z,13.04
2023-09-12T00:20:53.573Z,13.00
2023-09-12T00:23:22.868Z,12.75
2023-09-12T00:25:51.014Z,12.84
2023-09-12T00:28:17.453Z,12.76
2023-09-12T00:30:44.436Z,12.67
2023-09-12T00:33:11.002Z,12.68
2023-09-12T00:35:37.477Z,12.67
2023-09-12T00:38:04.249Z,12.70
2023-09-12T00:40:30.842Z,12.51
2023-09-12T00:42:58.145Z,12.56
2023-09-12T00:45:24.644Z,12.50
2023-09-12T00:47:52.897Z,12.63
2023-09-12T00:50:22.040Z,12.71
2023-09-12T00:52:49.050Z,12.74
2023-09-12T00:55:15.854Z,12.71
2023-09-12T00:57:42.855Z,12.64
2023-09-12T01:00:13.824Z,12.68
2023-09-12T01:02:42.127Z,12.70
2023-09-12T01:05:09.967Z,12.50
2023-09-12T01:07:40.152Z,12.60
2023-09-12T01:10:07.877Z,12.59
2023-09-12T01:12:34.488Z,12.56
2023-09-12T01:15:01.304Z,12.63
2023-09-12T01:17:28.736Z,12.56
2023-09-12T01:19:55.314Z,12.62
2023-09-12T01:22:52.917Z,12.63
2023-09-12T01:25:54.215Z,12.49
2023-09-12T01:28:25.357Z,12.43
2023-09-12T01:30:52.933Z,12.40
2023-09-12T01:33:20.239Z,12.58
2023-09-12T01:35:47.609Z,12.43
2023-09-12T01:38:15.468Z,12.56
2023-09-12T01:40:49.004Z,12.50
2023-09-12T01:43:18.644Z,12.40
2023-09-12T01:45:49.007Z,12.54
2023-09-12T01:48:20.892Z,12.45
2023-09-12T01:50:47.723Z,12.36
2023-09-12T01:53:15.593Z,12.57
2023-09-12T01:55:45.333Z,12.60
2023-09-12T01:58:13.293Z,12.66
2023-09-12T02:00:41.219Z,12.62
2023-09-12T02:03:10.133Z,12.58
2023-09-12T02:05:38.421Z,12.54
2023-09-12T02:08:06.115Z,12.44
2023-09-12T02:10:33.165Z,12.55
2023-09-12T02:12:59.683Z,12.45
2023-09-12T02:15:26.307Z,12.45
2023-09-12T02:17:53.378Z,12.51
2023-09-12T02:20:20.760Z,12.40
2023-09-12T02:22:47.435Z,12.49
2023-09-12T02:25:13.918Z,12.29
2023-09-12T02:27:40.534Z,12.22
2023-09-12T02:30:07.694Z,12.32
2023-09-12T02:32:34.130Z,12.07
2023-09-12T02:35:00.975Z,12.23
2023-09-12T02:37:27.477Z,12.23
2023-09-12T02:39:53.906Z,12.08
2023-09-12T02:42:20.423Z,12.11
2023-09-12T02:44:46.900Z,11.88
2023-09-12T02:47:13.439Z,11.94
2023-09-12T02:49:39.866Z,11.98
2023-09-12T02:52:06.505Z,12.03
2023-09-12T02:54:33.005Z,11.88
2023-09-12T02:56:59.474Z,11.92
2023-09-12T02:59:26.027Z,11.95
2023-09-12T03:01:52.478Z,11.84
2023-09-12T03:04:18.959Z,11.93
2023-09-12T03:06:45.593Z,11.87
2023-09-12T03:09:12.806Z,11.79
2023-09-12T03:11:39.297Z,11.86
2023-09-12T03:14:05.758Z,11.93
2023-09-12T03:16:35.256Z,11.93
2023-09-12T03:19:03.376Z,11.76
2023-09-12T03:21:31.746Z,11.85
2023-09-12T03:23:58.219Z,11.58
2023-09-12T03:26:24.639Z,11.65
2023-09-12T03:28:52.166Z,11.62
2023-09-12T03:31:19.784Z,11.62
2023-09-12T03:33:51.433Z,11.43
2023-09-12T03:36:21.305Z,11.51
2023-09-12T03:38:47.821Z,11.54
2023-09-12T03:41:15.417Z,11.53
2023-09-12T03:43:41.930Z,11.54
2023-09-12T03:46:08.409Z,11.47
2023-09-12T03:48:37.518Z,11.60
2023-09-12T03:51:05.130Z,11.47
2023-09-12T03:53:31.579Z,11.51
2023-09-12T03:55:58.864Z,11.37
2023-09-12T03:58:25.325Z,11.32
2023-09-12T04:00:51.808Z,11.26
2023-09-12T04:03:18.612Z,11.21
2023-09-12T04:05:47.957Z,11.16
2023-09-12T04:08:14.814Z,11.15
2023-09-12T04:10:41.261Z,11.26
2023-09-12T04:13:07.683Z,11.11
2023-09-12T04:15:34.874Z,11.13
2023-09-12T04:18:02.151Z,11.13
2023-09-12T04:20:28.641Z,11.07
2023-09-12T04:22:55.069Z,11.04
2023-09-12T04:25:21.494Z,11.13
2023-09-12T04:27:48.087Z,11.08
2023-09-12T04:30:14.649Z,11.02
2023-09-12T04:32:41.139Z,11.03
2023-09-12T04:35:07.957Z,10.89
2023-09-12T04:37:34.366Z,11.10
2023-09-12T04:40:00.792Z,10.99
2023-09-12T04:42:29.263Z,11.08
2023-09-12T04:44:55.807Z,11.06
2023-09-12T04:47:23.318Z,11.05
2023-09-12T04:49:49.791Z,11.20
2023-09-12T04:52:16.289Z,11.22
2023-09-12T04:54:43.894Z,11.17
2023-09-12T04:57:10.437Z,11.11
2023-09-12T04:59:44.199Z,11.27
2023-09-12T05:02:10.732Z,10.97
2023-09-12T05:04:37.303Z,11.07
2023-09-12T05:07:04.404Z,11.02
2023-09-12T05:09:30.918Z,11.16
2023-09-12T05:11:57.425Z,11.19
2023-09-12T05:14:23.926Z,11.23
2023-09-12T05:16:50.386Z,11.25
2023-09-12T05:19:16.877Z,11.31
2023-09-12T05:21:43.373Z,11.20
2023-09-12T05:24:09.999Z,11.27
2023-09-12T05:26:37.506Z,11.28
2023-09-12T05:29:04.067Z,11.32
2023-09-12T05:31:30.622Z,11.33
2023-09-12T05:33:57.169Z,11.60
2023-09-12T05:36:25.836Z,11.58
2023-09-12T05:38:52.281Z,11.78
2023-09-12T05:41:18.707Z,11.82
2023-09-12T05:43:45.146Z,11.85
2023-09-12T05:46:11.626Z,12.01
2023-09-12T05:48:38.170Z,11.95
2023-09-12T05:51:04.930Z,12.18
2023-09-12T05:53:31.782Z,12.19
2023-09-12T05:55:58.204Z,12.21
2023-09-12T05:58:24.664Z,12.31
2023-09-12T06:00:52.746Z,12.39
2023-09-12T06:03:19.591Z,12.55
2023-09-12T06:05:46.401Z,12.54
2023-09-12T06:08:12.860Z,12.78
2023-09-12T06:10:39.418Z,12.90
2023-09-12T06:13:05.886Z,13.05
2023-09-12T06:15:32.405Z,13.10
2023-09-12T06:17:59.521Z,13.30
2023-09-12T06:20:26.011Z,13.33
2023-09-12T06:22:52.585Z,13.44
2023-09-12T06:25:19.137Z,13.46
2023-09-12T06:27:45.625Z,13.73
2023-09-12T06:30:12.788Z,13.76
2023-09-12T06:32:39.677Z,13.72
2023-09-12T06:35:06.889Z,13.96
2023-09-12T06:37:33.414Z,13.98
2023-09-12T06:39:59.829Z,14.01
2023-09-12T06:42:26.933Z,14.19
2023-09-12T06:44:53.418Z,14.50
2023-09-12T06:47:19.847Z,14.54
2023-09-12T06:49:49.756Z,14.66
2023-09-12T06:52:18.102Z,14.78
2023-09-12T06:54:44.714Z,14.99
2023-09-12T06:57:11.619Z,15.09
2023-09-12T06:59:38.150Z,15.17
2023-09-12T07:02:04.861Z,15.32
2023-09-12T07:04:31.315Z,15.48
2023-09-12T07:06:58.002Z,15.75
2023-09-12T07:09:25.229Z,15.80
2023-09-12T07:11:51.841Z,15.79
2023-09-12T07:14:18.305Z,15.84
2023-09-12T07:16:44.944Z,16.01
2023-09-12T07:19:11.543Z,16.11
2023-09-12T07:21:38.188Z,16.20
2023-09-12T07:24:06.059Z,16.41
2023-09-12T07:26:32.619Z,16.35
2023-09-12T07:28:59.285Z,16.63
2023-09-12T07:31:25.873Z,16.70
2023-09-12T07:33:52.479Z,16.98
2023-09-12T07:36:19.178Z,16.98
2023-09-12T07:38:46.922Z,17.14
2023-09-12T07:41:13.377Z,17.16
2023-09-12T07:43:39.858Z,17.56
2023-09-12T07:46:06.402Z,17.74
2023-09-12T07:48:33.672Z,17.87
2023-09-12T07:51:00.294Z,17.92
2023-09-12T07:53:26.783Z,18.02
2023-09-12T07:55:53.337Z,18.11
2023-09-12T07:58:20.060Z,18.24
2023-09-12T08:00:47.255Z,18.53
2023-09-12T08:03:14.181Z,18.66
2023-09-12T08:05:40.827Z,18.69
2023-09-12T08:08:07.551Z,18.85
2023-09-12T08:10:34.175Z,19.12
2023-09-12T08:13:00.914Z,19.07
2023-09-12T08:15:27.437Z,19.11
2023-09-12T08:17:55.467Z,19.14
2023-09-12T08:20:22.232Z,19.57
2023-09-12T08:22:49.850Z,19.63
2023-09-12T08:25:16.947Z,19.74
2023-09-12T08:27:44.530Z,20.00
2023-09-12T08:30:14.346Z,20.12
2023-09-12T08:32:46.856Z,19.99
2023-09-12T08:35:14.566Z,20.21
2023-09-12T08:37:42.350Z,20.34
2023-09-12T08:40:11.485Z,20.26
2023-09-12T08:42:43.787Z,20.40
2023-09-12T08:45:17.186Z,20.47
2023-09-12T08:47:45.924Z,20.64
2023-09-12T08:50:14.497Z,20.52
2023-09-12T08:52:59.671Z,20.82
2023-09-12T08:55:26.945Z,20.94
2023-09-12T08:57:56.419Z,20.96
2023-09-12T09:00:24.508Z,21.03
2023-09-12T09:02:51.232Z,21.27
2023-09-12T09:05:18.730Z,21.10
2023-09-12T09:07:46.455Z,21.55
2023-09-12T09:10:24.110Z,21.60
2023-09-12T09:12:55.718Z,21.81
2023-09-12T09:15:27.453Z,21.98
2023-09-12T09:17:56.636Z,22.11
2023-09-12T09:20:31.077Z,22.33
2023-09-12T09:22:59.719Z,22.34
2023-09-12T09:25:26.364Z,22.43
2023-09-12T09:27:52.894Z,22.48
2023-09-12T09:30:20.059Z,22.67
2023-09-12T09:32:48.159Z,22.79
2023-09-12T09:35:14.812Z,22.89
2023-09-12T09:37:42.349Z,23.22
2023-09-12T09:40:09.940Z,23.19
2023-09-12T09:42:36.584Z,23.47
2023-09-12T09:45:03.876Z,23.45
2023-09-12T09:47:30.521Z,23.68
2023-09-12T09:50:00.267Z,23.74
2023-09-12T09:52:30.762Z,23.97
2023-09-12T09:54:57.299Z,24.18
2023-09-12T09:57:27.020Z,24.07
2023-09-12T09:59:53.721Z,24.29
2023-09-12T10:02:23.946Z,24.58
2023-09-12T10:05:00.291Z,24.59
2023-09-12T10:07:29.024Z,24.83
2023-09-12T10:09:56.533Z,24.79
2023-09-12T10:12:25.268Z,24.95
2023-09-12T10:14:52.206Z,24.94
2023-09-12T10:17:26.033Z,25.21
2023-09-12T10:19:57.350Z,25.44
2023-09-12T10:22:34.883Z,25.46
2023-09-12T10:25:04.727Z,25.39
2023-09-12T10:27:32.900Z,25.52
2023-09-12T10:30:01.183Z,25.51
2023-09-12T10:32:29.789Z,25.68
2023-09-12T10:34:59.351Z,25.71
2023-09-12T10:37:27.387Z,25.76
2023-09-12T10:39:57.627Z,25.93
2023-09-12T10:42:28.460Z,26.07
2023-09-12T10:44:57.553Z,26.00
2023-09-12T10:47:24.567Z,26.04
2023-09-12T10:49:51.666Z,26.31
2023-09-12T10:52:28.892Z,26.67
2023-09-12T10:54:56.303Z,26.64
2023-09-12T10:57:29.229Z,26.73
2023-09-12T11:00:05.328Z,26.92
2023-09-12T11:02:35.814Z,26.97
2023-09-12T11:05:28.926Z,27.17
2023-09-12T11:08:00.066Z,27.06
2023-09-12T11:10:27.892Z,27.29
2023-09-12T11:12:56.205Z,27.32
2023-09-12T11:15:25.091Z,27.33
2023-09-12T11:18:05.872Z,27.23
2023-09-12T11:20:53.335Z,27.44
2023-09-12T11:23:20.562Z,27.26
2023-09-12T11:25:47.265Z,27.11
2023-09-12T11:28:13.896Z,27.02
2023-09-12T11:30:56.961Z,27.58
2023-09-12T11:33:25.310Z,27.45
2023-09-12T11:35:55.668Z,27.35
2023-09-12T11:38:32.203Z,27.50
2023-09-12T11:41:01.926Z,27.40
2023-09-12T11:43:29.363Z,27.45
2023-09-12T11:45:57.428Z,27.40
2023-09-12T11:48:24.067Z,27.45
2023-09-12T11:50:55.536Z,27.59
2023-09-12T11:53:26.568Z,27.62
2023-09-12T11:55:59.094Z,27.70
2023-09-12T11:58:28.060Z,27.58
2023-09-12T12:00:57.036Z,27.79
2023-09-12T12:03:25.669Z,27.53
2023-09-12T12:05:56.848Z,27.51
2023-09-12T12:10:55.142Z,27.93
2023-09-12T12:13:23.705Z,27.74
2023-09-12T12:15:52.402Z,27.88
2023-09-12T12:18:21.058Z,28.17
2023-09-12T12:20:48.175Z,27.91
2023-09-12T12:23:15.074Z,27.64
2023-09-12T12:25:42.413Z,27.81
2023-09-12T12:28:10.597Z,28.05
2023-09-12T12:30:37.917Z,28.43
2023-09-12T12:33:41.109Z,28.04
2023-09-12T12:36:05.920Z,28.11
2023-09-12T12:38:37.366Z,28.24
2023-09-12T12:41:25.265Z,28.30
2023-09-12T12:44:03.913Z,28.31
2023-09-12T12:46:32.758Z,27.96
2023-09-12T12:48:59.355Z,27.94
2023-09-12T12:51:31.108Z,27.71
2023-09-12T12:54:05.993Z,28.34
2023-09-12T12:56:34.803Z,28.21
2023-09-12T12:59:04.001Z,28.36
2023-09-12T13:01:31.242Z,28.49
2023-09-12T13:03:57.915Z,28.42
2023-09-12T13:06:24.758Z,28.66
2023-09-12T13:08:52.740Z,28.60
2023-09-12T13:11:19.352Z,28.19
2023-09-12T13:13:48.059Z,28.55
2023-09-12T13:16:15.596Z,28.47
2023-09-12T13:18:42.742Z,28.61
2023-09-12T13:21:09.641Z,28.28
2023-09-12T13:23:39.666Z,28.57
2023-09-12T13:26:08.869Z,28.98
2023-09-12T13:28:35.428Z,28.78
2023-09-12T13:31:02.009Z,28.66
2023-09-12T13:33:28.533Z,28.81
2023-09-12T13:35:55.023Z,28.69
2023-09-12T13:38:22.745Z,28.89
2023-09-12T13:40:49.310Z,28.42
2023-09-12T13:43:16.096Z,28.56
2023-09-12T13:45:42.779Z,28.59
2023-09-12T13:48:09.617Z,28.78
2023-09-12T13:50:36.348Z,28.98
2023-09-12T13:53:05.101Z,28.81
2023-09-12T13:55:49.951Z,28.96
2023-09-12T13:58:18.030Z,28.78
2023-09-12T14:00:45.711Z,28.45
2023-09-12T14:03:12.507Z,28.74
2023-09-12T14:05:41.102Z,28.60
2023-09-12T14:08:09.278Z,28.44
2023-09-12T14:10:38.429Z,28.28
2023-09-12T14:13:20.114Z,28.19
2023-09-12T14:15:50.977Z,27.73
2023-09-12T14:18:19.328Z,27.88
2023-09-12T14:20:48.121Z,27.94
2023-09-12T14:23:15.814Z,27.83
2023-09-12T14:25:43.250Z,28.09
2023-09-12T14:28:11.622Z,28.25
2023-09-12T14:30:39.464Z,28.11
2023-09-12T14:33:06.275Z,27.80
2023-09-12T14:35:32.810Z,27.60
2023-09-12T14:37:59.963Z,27.52
2023-09-12T14:40:27.975Z,27.58
2023-09-12T14:42:55.469Z,27.74
2023-09-12T14:45:22.492Z,27.64
2023-09-12T14:47:49.148Z,27.64
2023-09-12T14:50:16.015Z,27.51
2023-09-12T14:52:43.179Z,27.48
2023-09-12T14:55:10.581Z,27.60
2023-09-12T14:57:37.216Z,27.42
2023-09-12T15:00:04.436Z,27.44
2023-09-12T15:02:33.886Z,27.26
2023-09-12T15:05:04.923Z,27.20
2023-09-12T15:07:31.807Z,26.98
2023-09-12T15:09:58.818Z,26.87
2023-09-12T15:12:26.041Z,26.67
2023-09-12T15:14:52.565Z,26.47
2023-09-12T15:17:19.790Z,26.52
2023-09-12T15:19:47.095Z,26.37
2023-09-12T15:22:14.646Z,26.15
2023-09-12T15:24:42.306Z,25.87
2023-09-12T15:27:09.919Z,25.89
2023-09-12T15:29:36.524Z,25.76
2023-09-12T15:32:03.054Z,25.53
2023-09-12T15:34:29.603Z,25.62
2023-09-12T15:39:43.344Z,25.25
2023-09-12T15:42:10.153Z,25.05
2023-09-12T15:44:37.839Z,24.92
2023-09-12T15:47:18.290Z,24.85
2023-09-12T15:49:46.965Z,23.64
2023-09-12T15:52:16.529Z,23.75
2023-09-12T15:54:44.048Z,23.74
2023-09-12T15:57:10.644Z,23.64
2023-09-12T15:59:37.073Z,23.11
2023-09-12T16:02:03.783Z,23.10
2023-09-12T16:04:30.428Z,22.87
2023-09-12T16:06:57.114Z,22.75
2023-09-12T16:09:23.686Z,22.49
2023-09-12T16:11:52.164Z,22.59
2023-09-12T16:14:18.617Z,22.52
2023-09-12T16:16:46.805Z,22.25
2023-09-12T16:19:14.309Z,22.36
2023-09-12T16:21:40.756Z,22.37
2023-09-12T16:24:11.832Z,22.45
2023-09-12T16:26:39.372Z,22.53
2023-09-12T16:29:10.977Z,22.47
2023-09-12T16:31:47.579Z,22.66
2023-09-12T16:34:14.269Z,22.40
2023-09-12T16:36:40.915Z,22.33
2023-09-12T16:39:10.530Z,22.19
2023-09-12T16:41:37.240Z,22.27
2023-09-12T16:44:03.991Z,22.17
2023-09-12T16:46:32.118Z,22.33
2023-09-12T16:48:58.597Z,22.19
2023-09-12T16:51:27.132Z,21.81
2023-09-12T16:53:55.199Z,21.71
2023-09-12T16:56:21.685Z,21.55
2023-09-12T16:58:48.115Z,21.52
2023-09-12T17:01:14.541Z,21.48
2023-09-12T17:03:45.915Z,21.70
2023-09-12T17:06:12.853Z,21.68
2023-09-12T17:08:39.295Z,21.65
2023-09-12T17:11:05.815Z,21.49
2023-09-12T17:13:32.250Z,21.25
2023-09-12T17:15:59.193Z,21.05
2023-09-12T17:18:25.757Z,21.01
2023-09-12T17:20:52.335Z,21.05
2023-09-12T17:23:18.778Z,20.98
2023-09-12T17:25:45.234Z,20.94
2023-09-12T17:28:16.853Z,21.05
2023-09-12T17:30:51.748Z,20.65
2023-09-12T17:33:23.338Z,20.97
2023-09-12T17:35:50.813Z,20.80
2023-09-12T17:38:18.249Z,20.56
2023-09-12T17:40:46.519Z,20.54
2023-09-12T17:43:13.049Z,20.47
2023-09-12T17:45:39.615Z,20.26
2023-09-12T17:48:06.214Z,20.22
2023-09-12T17:50:32.748Z,20.20
2023-09-12T17:53:01.648Z,20.20
2023-09-12T17:55:28.088Z,20.11
2023-09-12T17:57:54.804Z,19.96
2023-09-12T18:00:28.038Z,19.96
2023-09-12T18:02:54.725Z,20.15
2023-09-12T18:05:21.261Z,20.17
2023-09-12T18:07:47.858Z,20.07
2023-09-12T18:10:14.369Z,19.96
2023-09-12T18:12:40.994Z,20.04
2023-09-12T18:15:10.416Z,20.37
2023-09-12T18:17:37.070Z,20.43
2023-09-12T18:20:04.669Z,20.27
2023-09-12T18:22:31.394Z,20.14
2023-09-12T18:25:01.001Z,20.12
2023-09-12T18:27:28.128Z,20.02
2023-09-12T18:29:54.626Z,19.83
2023-09-12T18:32:22.325Z,19.93
2023-09-12T18:34:49.882Z,20.09
2023-09-12T18:37:17.421Z,20.20
2023-09-12T18:39:44.372Z,19.86
2023-09-12T18:42:12.100Z,19.69
2023-09-12T18:44:40.665Z,19.57
2023-09-12T18:47:11.409Z,19.79
2023-09-12T18:49:37.958Z,19.56
2023-09-12T18:52:09.778Z,19.50
2023-09-12T18:54:37.109Z,19.26
2023-09-12T18:57:11.846Z,19.01
2023-09-12T18:59:39.893Z,18.89
2023-09-12T19:02:07.081Z,18.60
2023-09-12T19:04:38.496Z,18.67
2023-09-12T19:07:06.087Z,18.62
2023-09-12T19:09:32.731Z,18.57
2023-09-12T19:11:59.255Z,18.46
2023-09-12T19:14:27.751Z,18.23
2023-09-12T19:16:56.031Z,17.99
2023-09-12T19:19:22.935Z,17.98
2023-09-12T19:21:50.450Z,17.82
2023-09-12T19:24:31.195Z,17.82
2023-09-12T19:26:57.960Z,17.69
2023-09-12T19:29:25.472Z,18.07
2023-09-12T19:31:52.073Z,18.18
2023-09-12T19:34:18.576Z,17.87
2023-09-12T19:36:45.068Z,17.61
2023-09-12T19:39:12.459Z,17.49
2023-09-12T19:41:38.897Z,17.49
2023-09-12T19:44:05.713Z,17.45
2023-09-12T19:46:32.309Z,17.35
2023-09-12T19:48:58.950Z,17.25
2023-09-12T19:51:26.508Z,17.26
2023-09-12T19:54:00.650Z,17.22
2023-09-12T19:56:27.082Z,17.04
2023-09-12T19:58:55.002Z,17.09
2023-09-12T20:01:21.431Z,17.19
2023-09-12T20:03:51.030Z,17.29
2023-09-12T20:06:18.602Z,17.16
2023-09-12T20:08:47.216Z,17.37
2023-09-12T20:11:19.086Z,17.26
2023-09-12T20:13:45.657Z,17.18
2023-09-12T20:16:16.814Z,17.28
2023-09-12T20:18:44.589Z,17.13
2023-09-12T20:21:11.121Z,17.20
2023-09-12T20:23:38.766Z,17.04
2023-09-12T20:26:09.865Z,17.13
2023-09-12T20:28:38.144Z,16.95
2023-09-12T20:31:06.756Z,16.89
2023-09-12T20:33:34.476Z,16.96
2023-09-12T20:36:01.590Z,16.95
2023-09-12T20:38:28.080Z,17.11
2023-09-12T20:40:54.538Z,16.95
2023-09-12T20:43:21.033Z,17.37
2023-09-12T20:45:48.895Z,17.31
2023-09-12T20:48:16.907Z,17.31
2023-09-12T20:50:43.734Z,17.26
2023-09-12T20:53:14.442Z,17.27
2023-09-12T20:55:41.041Z,17.41
2023-09-12T20:58:07.799Z,17.71
2023-09-12T21:00:34.726Z,17.85
2023-09-12T21:03:02.387Z,17.86
2023-09-12T21:05:28.890Z,18.05
2023-09-12T21:07:57.984Z,18.03
2023-09-12T21:10:24.565Z,17.87
2023-09-12T21:12:51.149Z,17.89
2023-09-12T21:15:22.612Z,17.56
2023-09-12T21:17:50.574Z,17.95
2023-09-12T21:20:19.084Z,17.81
2023-09-12T21:22:45.674Z,17.79
2023-09-12T21:25:12.208Z,17.56
2023-09-12T21:27:38.706Z,17.47
2023-09-12T21:30:05.735Z,17.52
2023-09-12T21:32:32.415Z,17.50
2023-09-12T21:35:16.012Z,17.51
2023-09-12T21:37:44.404Z,17.45
2023-09-12T21:40:12.443Z,17.30
2023-09-12T21:42:39.031Z,17.11
2023-09-12T21:45:06.321Z,16.79
2023-09-12T21:47:37.423Z,16.82
2023-09-12T21:50:04.244Z,16.54
2023-09-12T21:52:30.922Z,16.46
2023-09-12T21:54:58.529Z,16.50
2023-09-12T21:57:25.179Z,16.71
2023-09-12T21:59:58.575Z,16.58
2023-09-12T22:02:25.036Z,16.64
2023-09-12T22:04:51.484Z,16.48
2023-09-12T22:07:18.035Z,16.61
2023-09-12T22:09:44.751Z,16.46
2023-09-12T22:12:13.075Z,16.57
2023-09-12T22:14:39.745Z,16.71
2023-09-12T22:17:07.695Z,16.52
2023-09-12T22:19:36.135Z,16.56
2023-09-12T22:22:06.300Z,16.47
2023-09-12T22:24:33.758Z,16.52
2023-09-12T22:27:00.211Z,16.20
2023-09-12T22:29:27.712Z,16.38
2023-09-12T22:31:54.164Z,16.56
2023-09-12T22:34:23.869Z,16.37
2023-09-12T22:36:50.304Z,16.18
2023-09-12T22:39:16.784Z,16.11
2023-09-12T22:41:43.233Z,16.21
2023-09-12T22:44:09.702Z,16.16
2023-09-12T22:46:36.140Z,16.38
2023-09-12T22:49:02.698Z,16.29
2023-09-12T22:51:29.245Z,16.45
2023-09-12T22:53:55.752Z,16.24
2023-09-12T22:56:22.256Z,16.42
2023-09-12T22:58:48.704Z,16.39
2023-09-12T23:01:15.250Z,16.47
2023-09-12T23:03:42.155Z,16.38
2023-09-12T23:06:08.927Z,16.29
2023-09-12T23:08:36.404Z,16.20
2023-09-12T23:11:07.036Z,16.20
2023-09-12T23:13:33.564Z,16.43
2023-09-12T23:16:00.713Z,16.38
2023-09-12T23:18:27.208Z,16.42
2023-09-12T23:20:54.045Z,16.30
2023-09-12T23:23:20.531Z,16.02
2023-09-12T23:25:46.956Z,15.96
2023-09-12T23:28:13.615Z,16.16
2023-09-12T23:30:41.165Z,16.04
2023-09-12T23:33:08.806Z,16.15
2023-09-12T23:35:35.309Z,15.98
2023-09-12T23:38:03.202Z,15.99
2023-09-12T23:40:31.764Z,16.08
2023-09-12T23:42:58.262Z,16.10
2023-09-12T23:45:24.835Z,16.01
2023-09-12T23:47:51.378Z,16.05
2023-09-12T23:50:18.936Z,16.21
2023-09-12T23:52:45.443Z,15.97
2023-09-12T23:55:11.955Z,15.88
2023-09-12T23:57:38.630Z,16.05
